• Join FlightAware (Why Join?)
  • Login
  • US Flag 
03:18AM EDT


 

Airport Tracker/Info


-or-


 

Live Flight TrackerFlight Track Log ✈ SKW4664 ✈ 21-Apr-2013 ✈ KMSP - KFSD

Flight Track Log - Related Links

Times and Time Zones

All times are in EDT time to prevent confusion due to time zone crossing. See the SKW4664 flight status page for this flight to view local times or setup timezone preferences in your user account.

Time Position Orientation Groundspeed Altitude Reporting Facility
EDT Latitude Longitude Course Direction KTS MPH feet Rate Location/Type
10:27AM 44.8531 -93.2358 230° Southwest 145 167 2,500  Level FAA TRACON SMA TRACON (SMA)
10:27AM 44.8397 -93.2367 183° South 153 176 3,400 2,280 Climbing FAA TRACON SMA TRACON (SMA)
10:28AM 44.8264 -93.2489 213° Southwest 180 207 4,000 2,220 Climbing FAA TRACON SMA TRACON (SMA)
10:28AM 44.8083 -93.2700 220° Southwest 213 245 4,900 3,000 Climbing FAA TRACON SMA TRACON (SMA)
10:28AM 44.7919 -93.2869 216° Southwest 233 268 6,000 3,000 Climbing FAA TRACON SMA TRACON (SMA)
10:29AM 44.7778 -93.3086 227° Southwest 245 282 6,900 3,720 Climbing FAA TRACON SMA TRACON (SMA)
10:29AM 44.7656 -93.3411 242° Southwest 247 284 8,500 3,720 Climbing FAA TRACON SMA TRACON (SMA)
10:29AM 44.7556 -93.3692 243° Southwest 252 290 9,400 2,700 Climbing FAA TRACON SMA TRACON (SMA)
10:30AM 44.6612 -93.6777 235° Southwest  Level FlightAware Approximate
10:30AM 44.7456 -93.3972 243° Southwest 260 299 10,300  Level FAA TRACON SMA TRACON (SMA)
10:30AM 44.7344 -93.4336 247° West 264 304 11,600 3,060 Climbing FAA TRACON SMA TRACON (SMA)
10:30AM 44.7253 -93.4625 246° West 263 303 12,400 2,400 Climbing FAA TRACON SMA TRACON (SMA)
10:31AM 44.6027 -93.7946 235° Southwest  Level FlightAware Approximate
10:31AM 44.7169 -93.4925 249° West 266 306 13,200  Level FAA TRACON SMA TRACON (SMA)
10:31AM 44.7053 -93.5303 247° West 271 312 14,300 2,820 Climbing FAA TRACON SMA TRACON (SMA)
10:31AM 44.6958 -93.5606 246° West 275 316 15,100 2,220 Climbing FAA TRACON SMA TRACON (SMA)
10:32AM 44.5361 -93.9010 230° Southwest  Level FlightAware Approximate
10:32AM 44.6861 -93.5925 247° West 284 327 15,800  Level FAA TRACON SMA TRACON (SMA)
10:32AM 44.6739 -93.6331 247° West 291 335 16,800 2,700 Climbing FAA TRACON SMA TRACON (SMA)
10:32AM 44.6642 -93.6647 247° West 291 335 17,600 2,100 Climbing FAA TRACON SMA TRACON (SMA)
10:33AM 44.6539 -93.6975 246° West 294 338 18,200 2,220 Climbing FAA TRACON SMA TRACON (SMA)
10:33AM 44.6419 -93.7392 248° West 297 342 19,100 2,400 Climbing FAA TRACON SMA TRACON (SMA)
10:33AM 44.6319 -93.7722 247° West 298 343 19,800 1,920 Climbing FAA TRACON SMA TRACON (SMA)
10:34AM 44.6214 -93.8056 246° West 302 348 20,400 2,220 Climbing FAA TRACON SMA TRACON (SMA)
10:34AM 44.6092 -93.8483 248° West 307 353 21,300 2,220 Climbing FAA TRACON SMA TRACON (SMA)
10:34AM 44.5986 -93.8819 246° West 306 352 21,900 1,020 Climbing FAA TRACON SMA TRACON (SMA)
10:35AM 44.5878 -93.9172 247° West 315 362 22,000 120 Climbing FAA TRACON SMA TRACON (SMA)
10:35AM 44.5761 -93.9536 246° West 328 377 22,000  Level FAA TRACON SMA TRACON (SMA)
10:35AM 44.5622 -94.0019 248° West 346 398 22,000  Level FAA TRACON SMA TRACON (SMA)
10:36AM 44.5500 -94.0414 247° West 357 411 22,000  Level FAA TRACON SMA TRACON (SMA)
10:36AM 44.5358 -94.0936 249° West 370 426 22,000  Level FAA TRACON SMA TRACON (SMA)
10:36AM 44.5228 -94.1344 246° West 372 428 22,000  Level FAA TRACON SMA TRACON (SMA)
10:37AM 44.5103 -94.1756 247° West 372 428 22,000  Level FAA TRACON SMA TRACON (SMA)
10:37AM 44.4981 -94.2164 247° West 371 427 22,000  Level FAA TRACON SMA TRACON (SMA)
10:37AM 44.4822 -94.2669 246° West 369 425 22,000  Level FAA TRACON SMA TRACON (SMA)
10:38AM 44.4706 -94.3083 248° West 370 426 22,000  Level FAA TRACON SMA TRACON (SMA)
10:38AM 44.4578 -94.3494 246° West 372 428 22,000  Level FAA TRACON SMA TRACON (SMA)
10:38AM 44.4428 -94.4006 248° West 370 426 22,000  Level FAA TRACON SMA TRACON (SMA)
10:39AM 44.4281 -94.4311 236° Southwest 372 428 22,000  Level Minneapolis Center
10:40AM 44.3861 -94.5622 246° West 371 427 22,000  Level Minneapolis Center
10:41AM 44.3478 -94.6822 246° West 370 426 22,000  Level Minneapolis Center
10:42AM 44.3061 -94.8144 246° West 371 427 22,000  Level Minneapolis Center
10:43AM 44.2636 -94.9453 246° West 371 427 22,000  Level Minneapolis Center
10:44AM 44.2133 -95.1033 246° West 371 427 22,000  Level Minneapolis Center
10:45AM 44.1789 -95.2086 246° West 373 429 22,000  Level Minneapolis Center
10:46AM 44.1275 -95.3650 245° Southwest 371 427 22,000  Level Minneapolis Center
10:47AM 44.0833 -95.4964 245° Southwest 373 429 22,000 -840 Level Minneapolis Center
10:48AM 44.0411 -95.6242 245° Southwest 367 422 20,300 -2,100 Descending Minneapolis Center
10:49AM 44.0011 -95.7442 245° Southwest 344 396 17,800 -2,400 Descending Minneapolis Center
10:50AM 43.9592 -95.8700 245° Southwest 352 405 15,400 -2,460 Descending Minneapolis Center
10:51AM 43.9200 -95.9881 245° Southwest 342 394 12,800 -2,340 Descending Minneapolis Center
10:52AM 43.8853 -96.0936 245° Southwest 311 358 10,700 -1,860 Descending Minneapolis Center
10:53AM 43.8531 -96.1842 244° Southwest 286 329 9,100 -1,740 Descending Minneapolis Center
10:54AM 43.8253 -96.2683 245° Southwest 260 299 7,200 -1,560 Descending Minneapolis Center
10:55AM 43.8078 -96.3575 255° West 247 284 6,000 -600 Descending Minneapolis Center
10:56AM 43.7861 -96.4686 255° West 246 283 6,000  Level Minneapolis Center
10:57AM 43.7711 -96.5503 256° West 232 267 6,000 -120 Level Minneapolis Center
10:58AM 43.7592 -96.6139 255° West 192 221 5,800 -600 Descending Minneapolis Center
10:59AM 43.7475 -96.6783 256° West 178 205 4,800 -900 Descending Minneapolis Center
11:00AM 43.7256 -96.7328 241° Southwest 173 199 4,000 -660 Descending Minneapolis Center
11:01AM 43.6933 -96.7722 222° Southwest 164 189 3,500 -540 Descending Minneapolis Center